Araracuara Airport


Codes: SKAC/ACR
Name: Araracuara Airport
City: Araracuara
Country: Colombia
Elevation: 1250 ft.

Photos at Araracuara Airport


   Photos courtesy of SpottingLog. You can add your own sightings and photos by signing up for a free trial today.



No photos found.

Weather at Araracuara Airport


Time (UTC)DescriptionTempratureWindCloud coverageVisibilityPressureHumidity
13-Jun-2024 03:00Light Rain23°C2 mph, NW100%10000m1014hPa99%
13-Jun-2024 06:00Light Rain23°C0 mph, NW100%7265m1013hPa99%
13-Jun-2024 09:00Moderate Rain23°C2 mph, E100%2004m1012hPa100%
13-Jun-2024 12:00Moderate Rain23°C0 mph, NW100%10000m1013hPa100%
13-Jun-2024 15:00Light Rain24°C2 mph, SW100%10000m1015hPa98%
13-Jun-2024 18:00Light Rain26°C2 mph, SW97%7988m1012hPa93%
13-Jun-2024 21:00Light Rain25°C2 mph, SW93%10000m1010hPa98%
14-Jun-2024 00:00Overcast Clouds24°C2 mph, W97%10000m1011hPa99%
14-Jun-2024 03:00Overcast Clouds23°C0 mph, N99%10000m1013hPa99%
14-Jun-2024 06:00Overcast Clouds23°C0 mph, NW99%10000m1011hPa99%
14-Jun-2024 09:00Overcast Clouds22°C0 mph, SE99%10000m1011hPa100%
14-Jun-2024 12:00Overcast Clouds23°C0 mph, NE96%10000m1013hPa98%
14-Jun-2024 15:00Overcast Clouds29°C2 mph, NE99%10000m1013hPa67%
14-Jun-2024 18:00Light Rain28°C2 mph, NE99%10000m1010hPa88%
14-Jun-2024 21:00Moderate Rain27°C2 mph, NE85%10000m1009hPa95%
15-Jun-2024 00:00Moderate Rain24°C2 mph, N93%10000m1011hPa97%
15-Jun-2024 03:00Overcast Clouds23°C2 mph, N99%10000m1012hPa98%
15-Jun-2024 06:00Overcast Clouds22°C2 mph, N99%10000m1012hPa98%
15-Jun-2024 09:00Light Rain22°C0 mph, N100%10000m1012hPa99%
15-Jun-2024 12:00Light Rain23°C0 mph, NE100%10000m1013hPa99%
15-Jun-2024 15:00Light Rain24°C2 mph, NW100%10000m1014hPa96%
15-Jun-2024 18:00Light Rain31°C0 mph, S99%10000m1011hPa65%
15-Jun-2024 21:00Moderate Rain27°C2 mph, E72%8568m1009hPa94%
16-Jun-2024 00:00Moderate Rain23°C0 mph, SE76%3577m1011hPa98%
16-Jun-2024 03:00Light Rain23°C0 mph, SW100%10000m1013hPa97%
16-Jun-2024 06:00Light Rain22°C2 mph, W98%10000m1012hPa99%
16-Jun-2024 09:00Light Rain22°C2 mph, W93%10000m1011hPa99%
16-Jun-2024 12:00Light Rain23°C0 mph, E89%10000m1013hPa98%
16-Jun-2024 15:00Light Rain27°C0 mph, E100%10000m1013hPa89%
16-Jun-2024 18:00Light Rain30°C2 mph, N93%10000m1011hPa64%
16-Jun-2024 21:00Light Rain27°C0 mph, E61%10000m1010hPa85%
17-Jun-2024 00:00Moderate Rain23°C2 mph, E63%10000m1011hPa98%
17-Jun-2024 03:00Light Rain22°C2 mph, NW98%10000m1013hPa99%
17-Jun-2024 06:00Light Rain22°C0 mph, NW96%8281m1012hPa99%
17-Jun-2024 09:00Moderate Rain22°C2 mph, NW99%10000m1011hPa99%
17-Jun-2024 12:00Light Rain22°C2 mph, NW100%10000m1012hPa98%
17-Jun-2024 15:00Light Rain26°C2 mph, NW71%7713m1013hPa92%
17-Jun-2024 18:00Light Rain28°C4 mph, NW66%10000m1010hPa76%
17-Jun-2024 21:00Moderate Rain26°C2 mph, NW43%5505m1008hPa94%
18-Jun-2024 00:00Moderate Rain23°C2 mph, NW52%10000m1010hPa97%